createdAt,value
2022-08-07T00:02:40.649Z,18.93
2022-08-07T00:05:05.561Z,18.88
2022-08-07T00:07:40.552Z,18.80
2022-08-07T00:10:27.249Z,18.76
2022-08-07T00:13:02.038Z,18.70
2022-08-07T00:15:36.029Z,18.64
2022-08-07T00:18:06.330Z,18.58
2022-08-07T00:20:35.520Z,18.56
2022-08-07T00:23:03.643Z,18.54
2022-08-07T00:25:41.425Z,18.55
2022-08-07T00:28:10.650Z,18.53
2022-08-07T00:30:38.666Z,18.53
2022-08-07T00:33:08.491Z,18.53
2022-08-07T00:35:36.749Z,18.53
2022-08-07T00:38:04.692Z,18.57
2022-08-07T00:40:39.775Z,18.57
2022-08-07T00:43:58.603Z,18.56
2022-08-07T00:46:04.671Z,18.56
2022-08-07T00:48:35.709Z,18.60
2022-08-07T00:51:09.867Z,18.59
2022-08-07T00:53:38.888Z,18.58
2022-08-07T00:56:21.120Z,18.60
2022-08-07T00:58:51.740Z,18.63
2022-08-07T01:01:19.889Z,18.57
2022-08-07T01:03:55.675Z,18.55
2022-08-07T01:06:28.571Z,18.55
2022-08-07T01:09:01.114Z,18.54
2022-08-07T01:12:10.299Z,18.55
2022-08-07T01:14:32.709Z,18.60
2022-08-07T01:17:07.203Z,18.58
2022-08-07T01:19:35.159Z,18.59
2022-08-07T01:22:08.667Z,18.62
2022-08-07T01:24:39.562Z,18.63
2022-08-07T01:27:19.477Z,18.63
2022-08-07T01:29:47.542Z,18.64
2022-08-07T01:32:18.593Z,18.65
2022-08-07T01:34:47.442Z,18.62
2022-08-07T01:37:18.908Z,18.62
2022-08-07T01:39:49.939Z,18.63
2022-08-07T01:42:39.565Z,18.62
2022-08-07T01:45:10.094Z,18.64
2022-08-07T01:48:19.897Z,18.64
2022-08-07T01:50:36.483Z,18.64
2022-08-07T01:53:08.898Z,18.75
2022-08-07T01:55:43.778Z,18.74
2022-08-07T01:58:28.953Z,18.80
2022-08-07T02:01:09.476Z,18.79
2022-08-07T02:03:48.940Z,18.86
2022-08-07T02:06:31.275Z,18.86
2022-08-07T02:09:01.149Z,18.86
2022-08-07T02:12:02.941Z,18.85
2022-08-07T02:14:40.452Z,18.85
2022-08-07T02:17:12.501Z,18.87
2022-08-07T02:20:06.880Z,18.88
2022-08-07T02:22:38.292Z,18.89
2022-08-07T02:25:13.795Z,18.92
2022-08-07T02:27:52.098Z,18.98
2022-08-07T02:30:23.318Z,19.01
2022-08-07T02:33:07.249Z,18.98
2022-08-07T02:36:28.441Z,19.00
2022-08-07T02:38:32.751Z,18.97
2022-08-07T02:41:03.847Z,18.99
2022-08-07T02:43:31.957Z,19.08
2022-08-07T02:46:05.673Z,19.10
2022-08-07T02:48:34.391Z,19.08
2022-08-07T02:51:14.421Z,19.06
2022-08-07T02:53:58.260Z,19.08
2022-08-07T02:56:31.393Z,19.09
2022-08-07T02:58:59.414Z,19.15
2022-08-07T03:01:36.142Z,19.12
2022-08-07T03:04:07.562Z,19.13
2022-08-07T03:06:46.009Z,19.11
2022-08-07T03:09:42.164Z,19.14
2022-08-07T03:12:11.593Z,19.12
2022-08-07T03:14:52.241Z,19.10
2022-08-07T03:17:22.227Z,19.09
2022-08-07T03:19:57.995Z,19.05
2022-08-07T03:22:29.573Z,19.03
2022-08-07T03:25:00.935Z,19.01
2022-08-07T03:27:59.767Z,19.02
2022-08-07T03:30:19.825Z,19.03
2022-08-07T03:32:58.564Z,19.03
2022-08-07T03:35:38.047Z,19.04
2022-08-07T03:38:21.048Z,19.02
2022-08-07T03:41:01.528Z,19.00
2022-08-07T03:43:33.315Z,19.03
2022-08-07T03:46:10.517Z,18.99
2022-08-07T03:49:02.421Z,19.01
2022-08-07T03:51:47.882Z,18.99
2022-08-07T03:54:35.980Z,18.99
2022-08-07T03:57:10.023Z,18.95
2022-08-07T04:00:02.577Z,18.97
2022-08-07T04:02:34.181Z,19.02
2022-08-07T04:05:09.116Z,19.02
2022-08-07T04:07:42.829Z,19.00
2022-08-07T04:10:19.017Z,18.94
2022-08-07T04:12:50.644Z,18.93
2022-08-07T04:15:18.462Z,18.94
2022-08-07T04:18:58.579Z,18.94
2022-08-07T04:20:35.268Z,18.93
2022-08-07T04:23:06.623Z,18.93
2022-08-07T04:25:40.960Z,18.91
2022-08-07T04:28:15.855Z,18.96
2022-08-07T04:30:57.309Z,18.97
2022-08-07T04:33:26.892Z,19.00
2022-08-07T04:35:57.946Z,18.95
2022-08-07T04:38:26.319Z,18.88
2022-08-07T04:40:56.646Z,18.90
2022-08-07T04:44:09.676Z,18.93
2022-08-07T04:46:35.908Z,18.90
2022-08-07T04:49:37.838Z,18.83
2022-08-07T04:52:12.440Z,18.88
2022-08-07T04:55:15.013Z,18.92
2022-08-07T04:58:23.958Z,18.96
2022-08-07T05:00:47.266Z,18.96
2022-08-07T05:04:06.910Z,18.98
2022-08-07T05:06:51.657Z,19.01
2022-08-07T05:09:46.017Z,19.02
2022-08-07T05:12:26.942Z,19.07
2022-08-07T05:15:03.334Z,19.09
2022-08-07T05:18:00.648Z,19.06
2022-08-07T05:20:25.868Z,19.12
2022-08-07T05:22:55.753Z,19.15
2022-08-07T05:25:54.447Z,19.19
2022-08-07T05:28:22.632Z,19.23
2022-08-07T05:30:52.272Z,19.24
2022-08-07T05:33:20.789Z,19.29
2022-08-07T05:35:52.474Z,19.34
2022-08-07T05:38:59.412Z,19.39
2022-08-07T05:41:14.365Z,19.41
2022-08-07T05:44:01.128Z,19.40
2022-08-07T05:46:32.271Z,19.43
2022-08-07T05:49:00.036Z,19.49
2022-08-07T05:51:31.686Z,19.51
2022-08-07T05:54:09.726Z,19.55
2022-08-07T05:56:51.437Z,19.57
2022-08-07T05:59:20.791Z,19.56
2022-08-07T06:01:48.783Z,19.62
2022-08-07T06:04:19.462Z,19.63
2022-08-07T06:06:47.843Z,19.69
2022-08-07T06:10:03.721Z,19.70
2022-08-07T06:12:12.421Z,19.71
2022-08-07T06:14:49.649Z,19.83
2022-08-07T06:17:18.384Z,19.88
2022-08-07T06:19:57.880Z,19.92
2022-08-07T06:22:38.522Z,19.93
2022-08-07T06:25:10.010Z,19.97
2022-08-07T06:28:00.412Z,20.00
2022-08-07T06:30:35.617Z,20.04
2022-08-07T06:33:15.612Z,20.08
2022-08-07T06:36:13.004Z,20.13
2022-08-07T06:38:36.975Z,20.18
2022-08-07T06:41:13.022Z,20.25
2022-08-07T06:43:46.162Z,20.33
2022-08-07T06:46:20.382Z,20.38
2022-08-07T06:49:04.432Z,20.44
2022-08-07T06:51:33.695Z,20.51
2022-08-07T06:55:29.468Z,20.52
2022-08-07T06:56:56.205Z,20.54
2022-08-07T07:00:13.060Z,20.56
2022-08-07T07:02:48.963Z,20.62
2022-08-07T07:05:13.040Z,20.65
2022-08-07T07:07:59.271Z,20.65
2022-08-07T07:10:34.421Z,20.70
2022-08-07T07:13:14.383Z,20.74
2022-08-07T07:15:56.510Z,20.78
2022-08-07T07:18:47.736Z,20.75
2022-08-07T07:21:27.177Z,20.75
2022-08-07T07:24:12.652Z,20.81
2022-08-07T07:26:40.795Z,20.86
2022-08-07T07:29:57.196Z,20.91
2022-08-07T07:32:09.781Z,20.99
2022-08-07T07:34:40.389Z,21.00
2022-08-07T07:37:21.635Z,21.01
2022-08-07T07:40:02.970Z,21.06
2022-08-07T07:42:38.239Z,21.17
2022-08-07T07:45:07.269Z,21.25
2022-08-07T07:47:51.935Z,21.31
2022-08-07T07:50:34.298Z,21.29
2022-08-07T07:53:20.084Z,21.30
2022-08-07T07:55:57.840Z,21.34
2022-08-07T07:58:30.927Z,21.36
2022-08-07T08:02:01.998Z,21.44
2022-08-07T08:04:10.640Z,21.42
2022-08-07T08:06:48.132Z,21.45
2022-08-07T08:09:23.342Z,21.49
2022-08-07T08:12:02.102Z,21.48
2022-08-07T08:14:36.713Z,21.49
2022-08-07T08:17:55.361Z,21.51
2022-08-07T08:20:19.579Z,21.51
2022-08-07T08:23:15.770Z,21.59
2022-08-07T08:26:06.701Z,21.57
2022-08-07T08:28:44.821Z,21.57
2022-08-07T08:31:22.933Z,21.58
2022-08-07T08:34:03.536Z,21.62
2022-08-07T08:36:32.834Z,21.64
2022-08-07T08:39:07.699Z,21.72
2022-08-07T08:41:58.367Z,21.80
2022-08-07T08:44:44.556Z,21.79
2022-08-07T08:47:47.356Z,21.83
2022-08-07T08:50:39.141Z,21.81
2022-08-07T08:53:16.583Z,21.73
2022-08-07T08:55:58.915Z,21.76
2022-08-07T08:58:43.245Z,21.81
2022-08-07T09:01:21.714Z,21.82
2022-08-07T09:04:04.094Z,21.76
2022-08-07T09:07:01.862Z,21.75
2022-08-07T09:10:03.504Z,21.75
2022-08-07T09:12:37.266Z,21.76
2022-08-07T09:16:24.255Z,21.74
2022-08-07T09:18:53.186Z,21.74
2022-08-07T09:22:10.354Z,21.71
2022-08-07T09:24:56.161Z,21.68
2022-08-07T09:28:00.998Z,21.71
2022-08-07T09:30:57.136Z,21.82
2022-08-07T09:33:56.720Z,21.83
2022-08-07T09:36:49.986Z,21.86
2022-08-07T09:39:56.350Z,21.85
2022-08-07T09:42:41.230Z,21.91
2022-08-07T09:47:25.461Z,21.94
2022-08-07T09:50:04.207Z,21.95
2022-08-07T09:52:34.963Z,21.91
2022-08-07T09:55:28.935Z,21.86
2022-08-07T09:58:16.023Z,21.83
2022-08-07T10:00:55.881Z,21.79
2022-08-07T10:04:03.782Z,21.82
2022-08-07T10:06:49.224Z,21.83
2022-08-07T10:10:01.062Z,21.86
2022-08-07T10:12:54.777Z,21.88
2022-08-07T10:15:51.536Z,21.91
2022-08-07T10:18:39.078Z,21.92
2022-08-07T10:21:50.489Z,21.93
2022-08-07T10:24:33.383Z,21.98
2022-08-07T10:27:24.124Z,22.06
2022-08-07T10:30:12.143Z,22.18
2022-08-07T10:33:01.743Z,22.14
2022-08-07T10:36:11.033Z,22.16
2022-08-07T10:39:06.624Z,22.21
2022-08-07T10:41:51.230Z,22.26
2022-08-07T10:44:38.736Z,22.27
2022-08-07T10:47:27.052Z,22.39
2022-08-07T10:50:26.073Z,22.52
2022-08-07T10:53:08.351Z,22.58
2022-08-07T10:55:53.312Z,22.63
2022-08-07T10:58:40.598Z,22.66
2022-08-07T11:01:51.662Z,22.65
2022-08-07T11:05:10.575Z,22.78
2022-08-07T11:07:59.236Z,22.85
2022-08-07T11:10:40.859Z,22.96
2022-08-07T11:14:42.345Z,23.01
2022-08-07T11:16:32.925Z,23.30
2022-08-07T11:19:44.174Z,23.84
2022-08-07T11:22:34.032Z,23.94
2022-08-07T11:25:42.203Z,23.84
2022-08-07T11:28:26.935Z,23.72
2022-08-07T11:31:23.855Z,23.58
2022-08-07T11:34:05.156Z,23.58
2022-08-07T11:37:15.591Z,23.61
2022-08-07T11:40:19.202Z,23.66
2022-08-07T11:43:41.274Z,23.74
2022-08-07T11:46:42.089Z,23.68
2022-08-07T11:50:11.428Z,23.73
2022-08-07T11:52:49.229Z,23.77
2022-08-07T11:56:26.048Z,23.74
2022-08-07T12:00:08.844Z,23.70
2022-08-07T12:02:20.782Z,23.65
2022-08-07T12:05:28.860Z,23.61
2022-08-07T12:08:34.664Z,23.64
2022-08-07T12:11:21.553Z,23.66
2022-08-07T12:13:54.398Z,23.67
2022-08-07T12:16:31.015Z,23.69
2022-08-07T12:19:23.608Z,23.77
2022-08-07T12:22:38.819Z,23.79
2022-08-07T12:26:21.687Z,23.86
2022-08-07T12:28:30.946Z,23.90
2022-08-07T12:31:09.376Z,23.94
2022-08-07T12:34:00.652Z,24.06
2022-08-07T12:36:33.698Z,24.18
2022-08-07T12:39:41.168Z,24.24
2022-08-07T12:42:13.161Z,24.33
2022-08-07T12:44:47.632Z,24.41
2022-08-07T12:47:58.239Z,24.47
2022-08-07T12:50:51.817Z,24.43
2022-08-07T12:54:23.887Z,24.42
2022-08-07T12:56:43.427Z,24.33
2022-08-07T12:59:33.219Z,24.30
2022-08-07T13:02:16.600Z,24.29
2022-08-07T13:06:02.071Z,24.25
2022-08-07T13:08:18.834Z,24.23
2022-08-07T13:11:00.970Z,24.21
2022-08-07T13:13:48.735Z,24.19
2022-08-07T13:17:05.205Z,24.25
2022-08-07T13:20:14.495Z,24.27
2022-08-07T13:22:57.044Z,24.37
2022-08-07T13:25:50.797Z,24.46
2022-08-07T13:28:56.606Z,24.44
2022-08-07T13:31:46.253Z,24.41
2022-08-07T13:34:53.283Z,24.31
2022-08-07T13:37:33.645Z,24.36
2022-08-07T13:40:36.026Z,24.44
2022-08-07T13:43:16.552Z,24.36
2022-08-07T13:46:12.830Z,24.34
2022-08-07T13:48:38.895Z,24.34
2022-08-07T13:51:27.721Z,24.35
2022-08-07T13:54:07.079Z,24.36
2022-08-07T13:56:41.345Z,24.21
2022-08-07T13:59:27.821Z,24.13
2022-08-07T14:02:39.501Z,24.13
2022-08-07T14:05:19.661Z,24.14
2022-08-07T14:07:59.970Z,24.15
2022-08-07T14:10:41.976Z,24.23
2022-08-07T14:13:19.815Z,24.24
2022-08-07T14:15:58.925Z,24.25
2022-08-07T14:18:37.270Z,24.27
2022-08-07T14:21:11.639Z,24.29
2022-08-07T14:24:06.613Z,24.26
2022-08-07T14:26:50.591Z,24.26
2022-08-07T14:30:05.269Z,24.26
2022-08-07T14:32:37.590Z,24.23
2022-08-07T14:35:07.090Z,24.24
2022-08-07T14:38:03.243Z,24.20
2022-08-07T14:40:40.277Z,24.17
2022-08-07T14:43:59.200Z,24.15
2022-08-07T14:46:04.264Z,24.13
2022-08-07T14:48:34.006Z,24.12
2022-08-07T14:51:06.737Z,24.12
2022-08-07T14:54:05.948Z,24.15
2022-08-07T14:56:41.481Z,24.11
2022-08-07T15:00:06.220Z,24.08
2022-08-07T15:05:04.919Z,23.84
2022-08-07T15:07:54.742Z,23.80
2022-08-07T15:10:30.056Z,23.77
2022-08-07T15:13:01.211Z,23.76
2022-08-07T15:15:53.403Z,23.73
2022-08-07T15:18:40.106Z,23.73
2022-08-07T15:21:44.288Z,23.74
2022-08-07T15:25:15.013Z,23.68
2022-08-07T15:27:16.623Z,23.66
2022-08-07T15:30:08.530Z,23.62
2022-08-07T15:36:02.636Z,23.62
2022-08-07T15:38:51.268Z,23.59
2022-08-07T15:41:24.446Z,23.57
2022-08-07T15:44:16.186Z,23.57
2022-08-07T15:47:16.819Z,23.55
2022-08-07T15:50:04.036Z,23.50
2022-08-07T15:52:52.456Z,23.44
2022-08-07T15:55:53.545Z,23.37
2022-08-07T15:58:21.053Z,23.34
2022-08-07T16:00:52.079Z,23.39
2022-08-07T16:03:46.349Z,23.35
2022-08-07T16:06:18.324Z,23.37
2022-08-07T16:08:52.950Z,23.40
2022-08-07T16:11:41.686Z,23.40
2022-08-07T16:14:49.511Z,23.40
2022-08-07T16:18:02.552Z,23.39
2022-08-07T16:21:44.106Z,23.35
2022-08-07T16:24:35.106Z,23.37
2022-08-07T16:27:20.971Z,23.35
2022-08-07T16:30:11.802Z,23.31
2022-08-07T16:34:02.860Z,23.30
2022-08-07T16:36:20.791Z,23.29
2022-08-07T16:39:10.224Z,23.28
2022-08-07T16:42:27.691Z,23.21
2022-08-07T16:46:10.911Z,23.20
2022-08-07T16:49:04.026Z,23.13
2022-08-07T16:51:57.527Z,23.10
2022-08-07T16:54:54.883Z,23.09
2022-08-07T16:58:02.984Z,23.08
2022-08-07T17:00:48.737Z,23.09
2022-08-07T17:03:59.358Z,23.10
2022-08-07T17:07:02.904Z,23.10
2022-08-07T17:10:08.344Z,23.08
2022-08-07T17:12:53.035Z,23.09
2022-08-07T17:15:44.734Z,23.10
2022-08-07T17:18:40.072Z,23.14
2022-08-07T17:21:22.804Z,23.17
2022-08-07T17:24:14.360Z,23.15
2022-08-07T17:27:32.659Z,23.16
2022-08-07T17:30:15.974Z,23.15
2022-08-07T17:34:09.854Z,23.17
2022-08-07T17:36:28.071Z,23.18
2022-08-07T17:39:15.467Z,23.16
2022-08-07T17:42:04.479Z,23.19
2022-08-07T17:44:50.263Z,23.16
2022-08-07T17:47:38.280Z,23.19
2022-08-07T17:50:30.438Z,23.20
2022-08-07T17:53:55.720Z,23.19
2022-08-07T17:56:28.673Z,23.17
2022-08-07T17:59:08.991Z,23.15
2022-08-07T18:01:52.246Z,23.11
2022-08-07T18:04:31.072Z,23.08
2022-08-07T18:07:20.924Z,23.05
2022-08-07T18:10:32.181Z,23.01
2022-08-07T18:13:15.696Z,22.96
2022-08-07T18:16:32.822Z,22.91
2022-08-07T18:21:04.487Z,22.91
2022-08-07T18:22:15.074Z,22.89
2022-08-07T18:24:53.920Z,22.88
2022-08-07T18:27:59.249Z,22.88
2022-08-07T18:31:12.293Z,22.87
2022-08-07T18:34:35.893Z,22.84
2022-08-07T18:38:56.909Z,22.84
2022-08-07T18:40:42.292Z,22.81
2022-08-07T18:43:42.728Z,22.78
2022-08-07T18:47:05.476Z,22.76
2022-08-07T18:50:32.508Z,22.72
2022-08-07T18:52:53.977Z,22.68
2022-08-07T18:55:41.946Z,22.65
2022-08-07T18:59:01.958Z,22.66
2022-08-07T19:02:17.546Z,22.65
2022-08-07T19:04:57.405Z,22.61
2022-08-07T19:07:57.247Z,22.59
2022-08-07T19:10:41.123Z,22.55
2022-08-07T19:13:41.533Z,22.52
2022-08-07T19:16:43.200Z,22.46
2022-08-07T19:19:20.317Z,22.40
2022-08-07T19:22:31.052Z,22.33
2022-08-07T19:25:05.561Z,22.31
2022-08-07T19:28:56.539Z,22.24
2022-08-07T19:30:56.577Z,22.18
2022-08-07T19:33:17.241Z,22.14
2022-08-07T19:35:57.845Z,22.05
2022-08-07T19:38:30.496Z,21.98
2022-08-07T19:41:02.227Z,21.94
2022-08-07T19:43:49.562Z,21.88
2022-08-07T19:46:26.495Z,21.85
2022-08-07T19:49:07.611Z,21.80
2022-08-07T19:51:51.416Z,21.74
2022-08-07T19:54:33.036Z,21.71
2022-08-07T19:58:00.787Z,21.67
2022-08-07T20:00:10.373Z,21.64
2022-08-07T20:02:51.530Z,21.57
2022-08-07T20:05:29.834Z,21.52
2022-08-07T20:08:02.557Z,21.49
2022-08-07T20:10:37.205Z,21.48
2022-08-07T20:13:27.156Z,21.47
2022-08-07T20:16:15.781Z,21.44
2022-08-07T20:19:10.656Z,21.39
2022-08-07T20:21:48.353Z,21.36
2022-08-07T20:24:42.280Z,21.31
2022-08-07T20:27:45.863Z,21.27
2022-08-07T20:30:11.742Z,21.22
2022-08-07T20:32:44.847Z,21.16
2022-08-07T20:35:26.574Z,21.10
2022-08-07T20:38:00.832Z,21.07
2022-08-07T20:40:34.918Z,21.04
2022-08-07T20:43:09.713Z,20.98
2022-08-07T20:46:29.107Z,20.89
2022-08-07T20:48:37.366Z,20.80
2022-08-07T20:51:09.571Z,20.75
2022-08-07T20:54:03.880Z,20.70
2022-08-07T20:56:46.202Z,20.67
2022-08-07T21:00:04.990Z,20.61
2022-08-07T21:02:38.248Z,20.59
2022-08-07T21:05:16.305Z,20.55
2022-08-07T21:07:52.099Z,20.47
2022-08-07T21:10:36.885Z,20.44
2022-08-07T21:13:13.791Z,20.37
2022-08-07T21:15:58.468Z,20.30
2022-08-07T21:18:34.202Z,20.26
2022-08-07T21:21:05.523Z,20.22
2022-08-07T21:24:03.063Z,20.18
2022-08-07T21:26:42.864Z,20.17
2022-08-07T21:29:23.067Z,20.14
2022-08-07T21:32:46.920Z,20.12
2022-08-07T21:35:34.528Z,20.07
2022-08-07T21:38:35.602Z,20.02
2022-08-07T21:41:11.422Z,19.94
2022-08-07T21:43:56.112Z,19.93
2022-08-07T21:46:50.349Z,19.91
2022-08-07T21:50:02.807Z,19.89
2022-08-07T21:52:55.938Z,19.88
2022-08-07T21:55:29.793Z,19.84
2022-08-07T21:58:32.113Z,19.75
2022-08-07T22:01:13.726Z,19.72
2022-08-07T22:03:49.407Z,19.72
2022-08-07T22:06:30.502Z,19.68
2022-08-07T22:09:14.019Z,19.68
2022-08-07T22:12:05.376Z,19.65
2022-08-07T22:14:38.863Z,19.67
2022-08-07T22:17:27.646Z,19.66
2022-08-07T22:20:28.667Z,19.64
2022-08-07T22:23:00.659Z,19.62
2022-08-07T22:26:00.951Z,19.57
2022-08-07T22:29:01.716Z,19.56
2022-08-07T22:31:59.408Z,19.49
2022-08-07T22:34:53.485Z,19.48
2022-08-07T22:38:03.064Z,19.44
2022-08-07T22:40:46.150Z,19.42
2022-08-07T22:43:44.608Z,19.37
2022-08-07T22:47:02.972Z,19.36
2022-08-07T22:49:51.848Z,19.34
2022-08-07T22:52:37.021Z,19.31
2022-08-07T22:55:34.686Z,19.28
2022-08-07T22:58:40.081Z,19.24
2022-08-07T23:01:41.913Z,19.18
2022-08-07T23:04:28.259Z,19.17
2022-08-07T23:07:39.798Z,19.08
2022-08-07T23:10:37.515Z,19.04
2022-08-07T23:13:18.358Z,19.02
2022-08-07T23:16:44.681Z,19.01
2022-08-07T23:19:57.934Z,18.97
2022-08-07T23:22:52.573Z,18.96
2022-08-07T23:25:31.642Z,18.95
2022-08-07T23:28:28.516Z,18.93
2022-08-07T23:31:42.739Z,18.90
2022-08-07T23:34:37.442Z,18.87
2022-08-07T23:37:35.506Z,18.86
2022-08-07T23:40:29.846Z,18.86
2022-08-07T23:43:16.485Z,18.82
2022-08-07T23:46:19.911Z,18.82
2022-08-07T23:49:19.283Z,18.80
2022-08-07T23:52:59.710Z,18.76
2022-08-07T23:55:04.810Z,18.75
2022-08-07T23:57:50.499Z,18.75
